createdAt,value
2023-05-15T00:01:27.163Z,79.50
2023-05-15T00:03:55.589Z,79.40
2023-05-15T00:06:25.474Z,79.30
2023-05-15T00:08:53.781Z,79.40
2023-05-15T00:11:23.645Z,79.70
2023-05-15T00:13:55.725Z,79.80
2023-05-15T00:16:24.086Z,79.90
2023-05-15T00:18:52.428Z,79.90
2023-05-15T00:21:20.867Z,79.80
2023-05-15T00:23:49.220Z,79.90
2023-05-15T00:26:17.702Z,79.90
2023-05-15T00:28:48.629Z,79.90
2023-05-15T00:31:19.939Z,79.90
2023-05-15T00:33:48.624Z,80.00
2023-05-15T00:36:17.629Z,80.00
2023-05-15T00:38:46.086Z,79.90
2023-05-15T00:41:15.539Z,79.90
2023-05-15T00:43:44.988Z,79.90
2023-05-15T00:46:14.399Z,79.90
2023-05-15T00:48:46.189Z,79.90
2023-05-15T00:51:14.400Z,80.00
2023-05-15T00:53:43.762Z,80.20
2023-05-15T00:56:13.468Z,80.10
2023-05-15T00:58:43.303Z,80.40
2023-05-15T01:01:11.710Z,80.50
2023-05-15T01:03:53.506Z,80.50
2023-05-15T01:06:25.631Z,80.50
2023-05-15T01:08:57.374Z,80.50
2023-05-15T01:11:28.373Z,80.60
2023-05-15T01:13:58.309Z,80.90
2023-05-15T01:16:26.467Z,81.10
2023-05-15T01:19:05.443Z,81.40
2023-05-15T01:22:10.149Z,81.40
2023-05-15T01:25:03.050Z,81.40
2023-05-15T01:27:37.984Z,81.30
2023-05-15T01:30:12.671Z,81.30
2023-05-15T01:32:45.130Z,81.40
2023-05-15T01:35:19.245Z,81.40
2023-05-15T01:37:52.596Z,81.60
2023-05-15T01:40:24.784Z,81.80
2023-05-15T01:42:57.167Z,82.50
2023-05-15T01:45:26.394Z,81.70
2023-05-15T01:47:57.839Z,81.60
2023-05-15T01:50:31.716Z,81.90
2023-05-15T01:53:03.729Z,82.60
2023-05-15T01:55:32.231Z,82.40
2023-05-15T01:58:05.773Z,82.40
2023-05-15T02:00:34.562Z,82.40
2023-05-15T02:03:03.196Z,82.40
2023-05-15T02:05:32.187Z,82.20
2023-05-15T02:08:01.686Z,82.40
2023-05-15T02:10:30.416Z,82.60
2023-05-15T02:12:58.955Z,82.50
2023-05-15T02:15:30.113Z,82.30
2023-05-15T02:17:58.389Z,82.50
2023-05-15T02:20:26.674Z,82.60
2023-05-15T02:22:55.619Z,83.40
2023-05-15T02:25:33.093Z,82.70
2023-05-15T02:28:02.727Z,82.80
2023-05-15T02:30:39.668Z,82.60
2023-05-15T02:33:20.610Z,82.50
2023-05-15T02:35:58.221Z,82.70
2023-05-15T02:38:32.132Z,82.70
2023-05-15T02:41:02.867Z,83.10
2023-05-15T02:43:34.566Z,83.00
2023-05-15T02:46:05.051Z,83.00
2023-05-15T02:48:36.724Z,83.10
2023-05-15T02:51:06.245Z,83.20
2023-05-15T02:53:34.770Z,83.40
2023-05-15T02:56:02.948Z,83.50
2023-05-15T02:58:31.206Z,83.60
2023-05-15T03:00:59.513Z,83.70
2023-05-15T03:03:31.715Z,83.80
2023-05-15T03:06:01.555Z,83.90
2023-05-15T03:08:30.000Z,83.90
2023-05-15T03:10:58.442Z,84.00
2023-05-15T03:13:26.843Z,84.00
2023-05-15T03:15:54.977Z,84.20
2023-05-15T03:18:25.830Z,84.30
2023-05-15T03:20:55.453Z,84.40
2023-05-15T03:23:23.701Z,84.50
2023-05-15T03:25:51.897Z,84.60
2023-05-15T03:28:22.358Z,84.80
2023-05-15T03:30:50.579Z,85.00
2023-05-15T03:33:18.854Z,85.00
2023-05-15T03:35:47.017Z,86.10
2023-05-15T03:38:17.586Z,85.40
2023-05-15T03:40:45.817Z,86.10
2023-05-15T03:43:14.023Z,86.10
2023-05-15T03:45:45.738Z,86.00
2023-05-15T03:48:14.586Z,86.10
2023-05-15T03:50:42.872Z,86.40
2023-05-15T03:53:11.086Z,86.40
2023-05-15T03:55:40.780Z,86.60
2023-05-15T03:58:11.283Z,86.30
2023-05-15T04:00:39.496Z,86.20
2023-05-15T04:03:07.747Z,86.00
2023-05-15T04:05:36.059Z,86.90
2023-05-15T04:08:04.304Z,86.20
2023-05-15T04:10:33.971Z,86.40
2023-05-15T04:13:03.752Z,86.40
2023-05-15T04:15:31.935Z,86.40
2023-05-15T04:18:00.210Z,86.60
2023-05-15T04:20:28.457Z,86.80
2023-05-15T04:22:56.741Z,86.80
2023-05-15T04:25:25.691Z,86.80
2023-05-15T04:27:54.114Z,87.00
2023-05-15T04:30:23.828Z,87.10
2023-05-15T04:32:52.940Z,87.30
2023-05-15T04:35:21.144Z,87.70
2023-05-15T04:37:49.410Z,88.10
2023-05-15T04:40:18.384Z,88.90
2023-05-15T04:42:46.873Z,89.20
2023-05-15T04:45:15.452Z,89.50
2023-05-15T04:47:45.024Z,89.50
2023-05-15T04:50:13.457Z,89.50
2023-05-15T04:52:43.108Z,89.70
2023-05-15T04:55:14.398Z,90.30
2023-05-15T04:57:45.739Z,90.10
2023-05-15T05:00:17.933Z,90.30
2023-05-15T05:02:47.852Z,90.80
2023-05-15T05:05:16.655Z,90.90
2023-05-15T05:07:47.308Z,91.00
2023-05-15T05:10:18.805Z,91.50
2023-05-15T05:12:47.101Z,92.10
2023-05-15T05:15:18.311Z,91.70
2023-05-15T05:17:48.007Z,92.20
2023-05-15T05:20:16.300Z,92.70
2023-05-15T05:22:44.456Z,92.80
2023-05-15T05:25:12.660Z,93.40
2023-05-15T05:27:43.250Z,93.90
2023-05-15T05:30:12.286Z,94.10
2023-05-15T05:32:40.750Z,94.20
2023-05-15T05:35:12.543Z,93.80
2023-05-15T05:37:43.364Z,93.70
2023-05-15T05:40:12.419Z,93.60
2023-05-15T05:42:40.869Z,93.70
2023-05-15T05:45:09.989Z,93.40
2023-05-15T05:47:38.230Z,93.00
2023-05-15T05:50:08.078Z,92.60
2023-05-15T05:52:37.625Z,92.00
2023-05-15T05:55:06.459Z,92.00
2023-05-15T05:57:34.869Z,91.60
2023-05-15T06:00:04.806Z,91.30
2023-05-15T06:02:37.542Z,91.50
2023-05-15T06:05:07.581Z,91.60
2023-05-15T06:07:37.309Z,91.60
2023-05-15T06:10:07.617Z,91.80
2023-05-15T06:12:35.908Z,91.80
2023-05-15T06:15:04.258Z,92.20
2023-05-15T06:17:32.408Z,91.90
2023-05-15T06:20:00.890Z,92.00
2023-05-15T06:22:29.134Z,92.20
2023-05-15T06:24:58.686Z,92.70
2023-05-15T06:27:27.588Z,93.20
2023-05-15T06:29:55.748Z,93.40
2023-05-15T06:32:24.043Z,94.30
2023-05-15T06:34:52.299Z,94.90
2023-05-15T06:37:20.546Z,95.70
2023-05-15T06:39:48.775Z,96.50
2023-05-15T06:42:18.347Z,97.50
2023-05-15T06:44:49.679Z,98.90
2023-05-15T06:47:17.989Z,99.90
2023-05-15T06:49:46.268Z,99.90
2023-05-15T06:52:14.592Z,99.90
2023-05-15T06:54:45.392Z,99.90
2023-05-15T06:57:13.612Z,99.90
2023-05-15T06:59:43.239Z,99.90
2023-05-15T07:02:11.842Z,99.90
2023-05-15T07:04:40.165Z,99.90
2023-05-15T07:07:08.490Z,99.90
2023-05-15T07:09:39.260Z,99.90
2023-05-15T07:12:08.052Z,99.90
2023-05-15T07:14:36.307Z,99.90
2023-05-15T07:17:06.229Z,99.90
2023-05-15T07:19:34.606Z,99.90
2023-05-15T07:22:03.642Z,99.90
2023-05-15T07:24:31.983Z,99.90
2023-05-15T07:27:00.534Z,99.90
2023-05-15T07:29:28.742Z,99.90
2023-05-15T07:31:57.141Z,99.90
2023-05-15T07:34:26.812Z,99.90
2023-05-15T07:36:57.318Z,99.90
2023-05-15T07:39:25.624Z,99.90
2023-05-15T07:41:53.857Z,99.90
2023-05-15T07:44:24.541Z,99.90
2023-05-15T07:46:52.826Z,99.90
2023-05-15T07:49:20.930Z,99.90
2023-05-15T07:51:50.832Z,99.90
2023-05-15T07:54:18.993Z,99.90
2023-05-15T07:56:47.207Z,99.90
2023-05-15T07:59:17.865Z,99.90
2023-05-15T08:01:46.063Z,99.90
2023-05-15T08:04:14.290Z,99.90
2023-05-15T08:06:43.821Z,99.90
2023-05-15T08:09:13.984Z,99.90
2023-05-15T08:11:42.307Z,99.90
2023-05-15T08:14:12.430Z,99.90
2023-05-15T08:16:42.456Z,99.90
2023-05-15T08:19:10.691Z,99.90
2023-05-15T08:21:39.432Z,99.90
2023-05-15T08:24:08.282Z,99.90
2023-05-15T08:26:37.835Z,99.90
2023-05-15T08:29:09.075Z,99.90
2023-05-15T08:31:37.399Z,99.90
2023-05-15T08:34:05.680Z,99.90
2023-05-15T08:36:33.916Z,99.90
2023-05-15T08:39:02.435Z,99.90
2023-05-15T08:41:40.848Z,99.90
2023-05-15T08:44:11.711Z,99.90
2023-05-15T08:46:40.159Z,99.90
2023-05-15T08:49:13.522Z,99.90
2023-05-15T08:51:42.065Z,99.90
2023-05-15T08:54:10.561Z,99.90
2023-05-15T08:56:39.088Z,99.90
2023-05-15T08:59:07.627Z,99.90
2023-05-15T09:01:38.056Z,99.90
2023-05-15T09:04:06.489Z,99.90
2023-05-15T09:06:35.405Z,99.90
2023-05-15T09:09:05.419Z,99.90
2023-05-15T09:11:34.324Z,99.90
2023-05-15T09:14:02.772Z,99.90
2023-05-15T09:16:30.957Z,99.90
2023-05-15T09:19:01.880Z,99.90
2023-05-15T09:21:32.410Z,99.90
2023-05-15T09:24:17.401Z,99.90
2023-05-15T09:26:46.135Z,99.90
2023-05-15T09:29:18.816Z,99.90
2023-05-15T09:31:48.318Z,99.90
2023-05-15T09:34:18.150Z,99.90
2023-05-15T09:36:46.634Z,99.90
2023-05-15T09:39:14.918Z,99.90
2023-05-15T09:41:45.315Z,99.90
2023-05-15T09:44:21.992Z,99.90
2023-05-15T09:46:51.366Z,99.90
2023-05-15T09:49:21.357Z,99.90
2023-05-15T09:51:50.510Z,99.90
2023-05-15T09:54:19.836Z,99.90
2023-05-15T09:56:49.049Z,99.90
2023-05-15T09:59:21.677Z,99.90
2023-05-15T10:01:50.945Z,99.90
2023-05-15T10:04:20.564Z,99.90
2023-05-15T10:06:49.895Z,99.90
2023-05-15T10:09:20.577Z,99.90
2023-05-15T10:11:53.018Z,99.90
2023-05-15T10:14:24.484Z,99.90
2023-05-15T10:16:56.880Z,99.90
2023-05-15T10:19:29.310Z,99.90
2023-05-15T10:22:01.183Z,99.90
2023-05-15T10:24:31.207Z,99.90
2023-05-15T10:27:00.127Z,99.90
2023-05-15T10:29:31.134Z,99.90
2023-05-15T10:32:01.739Z,99.90
2023-05-15T10:34:31.935Z,99.90
2023-05-15T10:37:01.605Z,99.90
2023-05-15T10:39:33.699Z,99.90
2023-05-15T10:42:05.259Z,99.90
2023-05-15T10:44:33.502Z,99.90
2023-05-15T10:47:02.407Z,99.90
2023-05-15T10:49:35.809Z,99.90
2023-05-15T10:52:04.282Z,99.90
2023-05-15T10:54:35.486Z,99.90
2023-05-15T10:57:03.968Z,99.90
2023-05-15T10:59:33.167Z,99.90
2023-05-15T11:02:23.525Z,99.90
2023-05-15T11:04:59.943Z,99.90
2023-05-15T11:07:29.493Z,99.90
2023-05-15T11:09:58.266Z,99.90
2023-05-15T11:12:27.011Z,99.90
2023-05-15T11:15:25.395Z,99.90
2023-05-15T11:18:06.922Z,99.90
2023-05-15T11:20:40.785Z,99.90
2023-05-15T11:23:09.526Z,99.90
2023-05-15T11:25:38.562Z,99.90
2023-05-15T11:28:07.738Z,99.90
2023-05-15T11:30:38.321Z,99.90
2023-05-15T11:33:11.635Z,99.90
2023-05-15T11:35:43.564Z,99.90
2023-05-15T11:38:18.325Z,99.90
2023-05-15T11:40:48.012Z,99.90
2023-05-15T11:43:20.671Z,99.90
2023-05-15T11:45:55.598Z,99.90
2023-05-15T11:48:25.296Z,99.90
2023-05-15T11:50:58.705Z,99.90
2023-05-15T11:53:27.383Z,99.90
2023-05-15T11:55:55.668Z,99.90
2023-05-15T11:58:25.475Z,99.90
2023-05-15T12:00:55.460Z,99.90
2023-05-15T12:03:28.402Z,99.90
2023-05-15T12:06:00.027Z,99.90
2023-05-15T12:08:32.425Z,99.90
2023-05-15T12:11:01.564Z,99.90
2023-05-15T12:13:31.013Z,99.90
2023-05-15T12:16:00.129Z,99.90
2023-05-15T12:18:32.032Z,99.90
2023-05-15T12:21:01.728Z,99.90
2023-05-15T12:23:30.055Z,99.90
2023-05-15T12:26:02.563Z,99.90
2023-05-15T12:28:31.473Z,99.90
2023-05-15T12:31:00.417Z,99.90
2023-05-15T12:33:28.897Z,99.90
2023-05-15T12:36:01.775Z,99.90
2023-05-15T12:38:33.927Z,99.90
2023-05-15T12:41:02.252Z,99.90
2023-05-15T12:43:32.969Z,99.90
2023-05-15T12:46:01.147Z,99.90
2023-05-15T12:48:33.110Z,99.90
2023-05-15T12:51:07.749Z,99.90
2023-05-15T12:53:39.884Z,99.90
2023-05-15T12:56:09.601Z,99.90
2023-05-15T12:58:39.810Z,99.90
2023-05-15T13:01:08.080Z,99.90
2023-05-15T13:03:36.890Z,99.90
2023-05-15T13:06:07.122Z,99.90
2023-05-15T13:08:42.592Z,99.90
2023-05-15T13:11:14.255Z,99.90
2023-05-15T13:13:47.073Z,99.90
2023-05-15T13:16:22.498Z,99.90
2023-05-15T13:18:51.024Z,99.90
2023-05-15T13:21:19.559Z,99.90
2023-05-15T13:23:49.189Z,99.90
2023-05-15T13:26:17.385Z,99.90
2023-05-15T13:28:45.651Z,99.90
2023-05-15T13:31:14.030Z,99.90
2023-05-15T13:33:42.223Z,99.90
2023-05-15T13:36:10.892Z,99.90
2023-05-15T13:38:39.257Z,99.90
2023-05-15T13:41:09.216Z,99.90
2023-05-15T13:43:37.378Z,99.90
2023-05-15T13:46:05.956Z,99.90
2023-05-15T13:48:36.222Z,99.90
2023-05-15T13:51:04.506Z,99.90
2023-05-15T13:53:32.708Z,99.90
2023-05-15T13:56:03.615Z,99.90
2023-05-15T13:58:33.288Z,99.90
2023-05-15T14:01:03.956Z,99.90
2023-05-15T14:03:32.349Z,99.90
2023-05-15T14:06:01.174Z,99.90
2023-05-15T14:08:29.368Z,99.90
2023-05-15T14:10:59.697Z,99.90
2023-05-15T14:13:31.572Z,99.90
2023-05-15T14:16:01.203Z,99.90
2023-05-15T14:18:31.778Z,99.90
2023-05-15T14:21:00.634Z,99.90
2023-05-15T14:23:28.921Z,99.90
2023-05-15T14:25:59.526Z,99.90
2023-05-15T14:28:27.957Z,99.90
2023-05-15T14:30:56.116Z,99.90
2023-05-15T14:33:26.729Z,99.90
2023-05-15T14:35:54.966Z,99.90
2023-05-15T14:38:23.203Z,99.90
2023-05-15T14:40:51.513Z,99.90
2023-05-15T14:43:19.775Z,99.90
2023-05-15T14:45:50.452Z,99.90
2023-05-15T14:48:22.286Z,99.90
2023-05-15T14:50:52.572Z,99.90
2023-05-15T14:53:20.853Z,99.90
2023-05-15T14:55:49.064Z,99.90
2023-05-15T14:58:17.299Z,99.90
2023-05-15T15:00:45.534Z,99.90
2023-05-15T15:03:13.784Z,99.90
2023-05-15T15:05:42.074Z,99.90
2023-05-15T15:08:12.503Z,99.90
2023-05-15T15:10:43.594Z,99.90
2023-05-15T15:13:13.702Z,99.90
2023-05-15T15:15:42.103Z,99.90
2023-05-15T15:18:10.443Z,99.90
2023-05-15T15:20:38.954Z,99.90
2023-05-15T15:23:07.184Z,99.90
2023-05-15T15:25:36.828Z,99.90
2023-05-15T15:28:05.081Z,99.90
2023-05-15T15:30:33.300Z,99.90
2023-05-15T15:33:02.030Z,99.90
2023-05-15T15:35:30.440Z,99.90
2023-05-15T15:37:58.676Z,99.90
2023-05-15T15:40:27.136Z,99.90
2023-05-15T15:43:01.759Z,99.90
2023-05-15T15:45:30.136Z,99.90
2023-05-15T15:47:58.358Z,99.90
2023-05-15T15:50:26.841Z,99.90
2023-05-15T15:52:55.363Z,99.90
2023-05-15T15:55:26.083Z,99.90
2023-05-15T15:57:54.303Z,99.90
2023-05-15T16:00:24.078Z,99.90
2023-05-15T16:02:52.559Z,99.90
2023-05-15T16:05:21.076Z,99.90
2023-05-15T16:07:49.240Z,99.90
2023-05-15T16:10:17.610Z,99.90
2023-05-15T16:12:46.041Z,99.90
2023-05-15T16:15:23.307Z,99.90
2023-05-15T16:17:54.991Z,99.90
2023-05-15T16:20:24.020Z,99.90
2023-05-15T16:22:52.684Z,99.90
2023-05-15T16:25:21.017Z,99.90
2023-05-15T16:27:49.217Z,99.90
2023-05-15T16:30:17.521Z,99.90
2023-05-15T16:32:46.120Z,99.90
2023-05-15T16:35:15.799Z,99.90
2023-05-15T16:37:44.035Z,99.90
2023-05-15T16:40:13.502Z,99.90
2023-05-15T16:42:44.198Z,99.90
2023-05-15T16:45:12.515Z,99.90
2023-05-15T16:47:41.440Z,99.90
2023-05-15T16:50:10.559Z,99.90
2023-05-15T16:52:45.479Z,99.90
2023-05-15T16:55:15.727Z,99.90
2023-05-15T16:57:45.291Z,99.90
2023-05-15T17:00:14.824Z,99.90
2023-05-15T17:02:43.612Z,99.90
2023-05-15T17:05:12.713Z,99.90
2023-05-15T17:07:46.238Z,99.90
2023-05-15T17:10:14.604Z,99.90
2023-05-15T17:12:42.948Z,99.90
2023-05-15T17:15:12.138Z,99.90
2023-05-15T17:17:40.482Z,99.90
2023-05-15T17:20:12.910Z,99.90
2023-05-15T17:22:41.409Z,99.90
2023-05-15T17:25:11.446Z,99.90
2023-05-15T17:27:41.514Z,99.90
2023-05-15T17:30:10.842Z,99.90
2023-05-15T17:32:39.468Z,99.90
2023-05-15T17:35:10.295Z,99.90
2023-05-15T17:37:38.802Z,99.90
2023-05-15T17:40:08.771Z,99.90
2023-05-15T17:42:38.430Z,99.90
2023-05-15T17:45:07.623Z,99.90
2023-05-15T17:47:35.963Z,99.90
2023-05-15T17:50:04.221Z,99.90
2023-05-15T17:52:32.544Z,99.90
2023-05-15T17:55:00.822Z,99.90
2023-05-15T17:57:29.064Z,99.90
2023-05-15T17:59:58.660Z,99.90
2023-05-15T18:02:27.014Z,99.90
2023-05-15T18:04:56.216Z,99.90
2023-05-15T18:07:24.522Z,99.90
2023-05-15T18:09:52.845Z,99.90
2023-05-15T18:12:21.017Z,99.90
2023-05-15T18:14:49.302Z,99.90
2023-05-15T18:17:19.998Z,99.90
2023-05-15T18:19:48.354Z,99.90
2023-05-15T18:22:16.586Z,99.90
2023-05-15T18:24:44.897Z,99.90
2023-05-15T18:27:13.406Z,99.90
2023-05-15T18:29:43.278Z,99.90
2023-05-15T18:32:14.800Z,99.90
2023-05-15T18:34:44.358Z,99.90
2023-05-15T18:37:12.535Z,99.90
2023-05-15T18:39:42.977Z,99.90
2023-05-15T18:42:11.317Z,99.90
2023-05-15T18:44:40.070Z,99.90
2023-05-15T18:47:11.028Z,99.90
2023-05-15T18:49:41.455Z,99.90
2023-05-15T18:52:11.021Z,99.90
2023-05-15T18:54:40.305Z,99.90
2023-05-15T18:57:09.244Z,99.90
2023-05-15T18:59:37.544Z,99.90
2023-05-15T19:02:05.950Z,99.90
2023-05-15T19:04:34.473Z,99.90
2023-05-15T19:07:02.698Z,99.90
2023-05-15T19:09:32.263Z,99.90
2023-05-15T19:12:02.454Z,99.90
2023-05-15T19:14:30.659Z,99.90
2023-05-15T19:16:58.911Z,99.90
2023-05-15T19:19:27.245Z,99.90
2023-05-15T19:21:55.433Z,99.90
2023-05-15T19:24:23.954Z,99.90
2023-05-15T19:26:53.503Z,99.90
2023-05-15T19:29:21.697Z,99.90
2023-05-15T19:31:49.961Z,99.90
2023-05-15T19:34:18.547Z,99.90
2023-05-15T19:36:47.058Z,99.90
2023-05-15T19:39:17.454Z,99.90
2023-05-15T19:41:46.050Z,99.90
2023-05-15T19:44:15.596Z,99.90
2023-05-15T19:46:45.132Z,99.90
2023-05-15T19:49:15.493Z,99.90
2023-05-15T19:51:43.691Z,99.90
2023-05-15T19:54:12.326Z,99.90
2023-05-15T19:56:40.487Z,99.90
2023-05-15T19:59:08.639Z,99.90
2023-05-15T20:01:38.590Z,99.90
2023-05-15T20:04:06.902Z,99.90
2023-05-15T20:06:35.093Z,99.90
2023-05-15T20:09:04.668Z,99.90
2023-05-15T20:11:32.861Z,99.90
2023-05-15T20:14:01.074Z,99.90
2023-05-15T20:16:32.360Z,99.90
2023-05-15T20:19:02.025Z,99.90
2023-05-15T20:21:31.919Z,99.90
2023-05-15T20:24:02.386Z,99.90
2023-05-15T20:26:30.576Z,99.90
2023-05-15T20:28:58.738Z,99.90
2023-05-15T20:31:26.913Z,99.90
2023-05-15T20:33:57.781Z,99.90
2023-05-15T20:36:28.340Z,99.90
2023-05-15T20:38:56.545Z,99.90
2023-05-15T20:41:24.742Z,99.90
2023-05-15T20:43:52.975Z,99.90
2023-05-15T20:46:21.310Z,99.90
2023-05-15T20:48:49.545Z,99.90
2023-05-15T20:51:17.780Z,99.90
2023-05-15T20:53:47.286Z,99.90
2023-05-15T20:56:15.828Z,99.90
2023-05-15T20:58:45.294Z,99.90
2023-05-15T21:01:13.614Z,99.90
2023-05-15T21:03:41.986Z,99.90
2023-05-15T21:06:10.719Z,99.90
2023-05-15T21:08:38.979Z,99.90
2023-05-15T21:11:08.524Z,99.90
2023-05-15T21:13:36.682Z,99.90
2023-05-15T21:16:05.094Z,99.90
2023-05-15T21:18:33.327Z,99.90
2023-05-15T21:21:03.126Z,99.90
2023-05-15T21:23:33.892Z,99.90
2023-05-15T21:26:02.129Z,99.90
2023-05-15T21:28:31.882Z,99.90
2023-05-15T21:31:06.329Z,99.90
2023-05-15T21:33:35.688Z,99.90
2023-05-15T21:36:04.148Z,99.90
2023-05-15T21:38:32.713Z,99.90
2023-05-15T21:41:01.374Z,99.90
2023-05-15T21:43:30.929Z,99.90
2023-05-15T21:45:59.201Z,99.90
2023-05-15T21:48:27.754Z,99.90
2023-05-15T21:50:56.517Z,99.90
2023-05-15T21:53:25.708Z,99.90
2023-05-15T21:55:56.548Z,99.90
2023-05-15T21:58:24.747Z,99.90
2023-05-15T22:00:54.374Z,99.90
2023-05-15T22:03:23.096Z,99.90
2023-05-15T22:05:52.902Z,99.90
2023-05-15T22:08:21.197Z,99.90
2023-05-15T22:10:49.896Z,99.90
2023-05-15T22:13:20.633Z,99.90
2023-05-15T22:15:48.802Z,99.90
2023-05-15T22:18:19.537Z,99.90
2023-05-15T22:20:49.139Z,99.90
2023-05-15T22:23:17.288Z,99.90
2023-05-15T22:25:45.545Z,99.90
2023-05-15T22:28:13.757Z,99.90
2023-05-15T22:30:42.029Z,99.90
2023-05-15T22:33:12.566Z,99.90
2023-05-15T22:35:44.573Z,99.90
2023-05-15T22:38:12.788Z,99.90
2023-05-15T22:40:41.295Z,99.90
2023-05-15T22:43:09.478Z,99.90
2023-05-15T22:45:37.761Z,99.90
2023-05-15T22:48:07.013Z,99.90
2023-05-15T22:50:35.373Z,99.90
2023-05-15T22:53:05.074Z,99.90
2023-05-15T22:55:33.343Z,99.90
2023-05-15T22:58:01.685Z,99.90
2023-05-15T23:00:30.299Z,99.90
2023-05-15T23:02:59.065Z,99.90
2023-05-15T23:05:27.795Z,99.90
2023-05-15T23:07:56.443Z,99.90
2023-05-15T23:10:26.423Z,99.90
2023-05-15T23:12:54.895Z,99.90
2023-05-15T23:15:23.113Z,99.90
2023-05-15T23:17:51.415Z,99.90
2023-05-15T23:20:19.836Z,99.90
2023-05-15T23:22:48.096Z,99.90
2023-05-15T23:25:16.432Z,99.90
2023-05-15T23:27:48.580Z,99.90
2023-05-15T23:30:17.260Z,99.90
2023-05-15T23:32:45.656Z,99.90
2023-05-15T23:35:16.168Z,99.90
2023-05-15T23:37:44.580Z,99.90
2023-05-15T23:40:14.525Z,99.90
2023-05-15T23:42:45.070Z,99.90
2023-05-15T23:45:15.161Z,99.90
2023-05-15T23:47:43.376Z,99.90
2023-05-15T23:50:11.784Z,99.90
2023-05-15T23:52:39.944Z,99.90
2023-05-15T23:55:08.806Z,99.90
2023-05-15T23:57:36.965Z,99.90
